Time;durP1;ratioP1;P1;durP2;ratioP2;P2;SDS_P1;SDS_P2;PMS_P1;PMS_P2;Temp;Humidity;BMP_temperature;BMP_pressure;BME280_temperature;BME280_humidity;BME280_pressure;Samples;Min_cycle;Max_cycle;Signal;HPM_P1;HPM_P2
2021/11/11 00:01:06;;;;;;;;;;;18.20;72.00;;;;;;5076787;28;19932;-49
2021/11/11 00:03:33;;;;;;;;;;;18.20;72.00;;;;;;5077916;28;19938;-46
2021/11/11 00:06:00;;;;;;;;;;;18.20;72.00;;;;;;5095268;28;19924;-45
2021/11/11 00:08:27;;;;;;;;;;;18.20;72.00;;;;;;5095125;28;19928;-48
2021/11/11 00:10:54;;;;;;;;;;;18.20;72.00;;;;;;5094745;28;20436;-47
2021/11/11 00:13:21;;;;;;;;;;;18.20;72.00;;;;;;5095108;28;19988;-54
2021/11/11 00:15:49;;;;;;;;;;;18.20;72.00;;;;;;5080424;28;20322;-44
2021/11/11 00:18:16;;;;;;;;;;;18.20;72.10;;;;;;5074284;28;19932;-45
2021/11/11 00:20:43;;;;;;;;;;;18.20;72.10;;;;;;5076583;28;19924;-52
2021/11/11 00:23:10;;;;;;;;;;;18.20;72.10;;;;;;5077155;28;19986;-51
2021/11/11 00:25:37;;;;;;;;;;;18.20;72.00;;;;;;5094588;28;20303;-49
2021/11/11 00:28:05;;;;;;;;;;;18.20;72.00;;;;;;5094564;28;20386;-50
2021/11/11 00:30:32;;;;;;;;;;;18.20;72.00;;;;;;5083468;28;19929;-48
2021/11/11 00:33:00;;;;;;;;;;;18.20;72.00;;;;;;5073723;28;20290;-51
2021/11/11 00:35:28;;;;;;;;;;;18.20;72.00;;;;;;5090287;28;19927;-49
2021/11/11 00:37:57;;;;;;;;;;;18.20;72.10;;;;;;5094704;28;20314;-50
2021/11/11 00:40:26;;;;;;;;;;;18.20;72.10;;;;;;5094526;28;19982;-43
2021/11/11 00:42:52;;;;;;;;;;;18.20;72.10;;;;;;5094626;28;20279;-48
2021/11/11 00:45:20;;;;;;;;;;;18.20;72.80;;;;;;5086750;28;20268;-47
2021/11/11 00:47:48;;;;;;;;;;;18.20;72.10;;;;;;5074279;28;19925;-51
2021/11/11 00:50:16;;;;;;;;;;;18.20;72.10;;;;;;5086932;28;19924;-49
2021/11/11 00:52:43;;;;;;;;;;;18.20;72.10;;;;;;5094276;28;19932;-50
2021/11/11 00:55:10;;;;;;;;;;;18.20;72.10;;;;;;5072496;28;19974;-45
2021/11/11 00:57:38;;;;;;;;;;;18.20;72.10;;;;;;5072721;28;19924;-46
2021/11/11 01:00:07;;;;;;;;;;;18.20;72.10;;;;;;5069597;28;19928;-51
2021/11/11 01:02:36;;;;;;;;;;;18.20;72.10;;;;;;5054087;28;19925;-46
2021/11/11 01:05:05;;;;;;;;;;;18.20;72.10;;;;;;5064122;28;20295;-49
2021/11/11 01:07:32;;;;;;;;;;;18.20;72.10;;;;;;5073762;28;19979;-46
2021/11/11 01:09:59;;;;;;;;;;;18.20;72.10;;;;;;5073523;28;19924;-49
2021/11/11 01:12:26;;;;;;;;;;;18.20;72.10;;;;;;5073722;28;19928;-44
2021/11/11 01:14:53;;;;;;;;;;;18.20;72.10;;;;;;5073157;28;20330;-50
2021/11/11 01:17:20;;;;;;;;;;;18.20;72.10;;;;;;5052250;28;19925;-51
2021/11/11 01:19:47;;;;;;;;;;;18.20;72.10;;;;;;5052952;28;19925;-48
2021/11/11 01:22:14;;;;;;;;;;;18.20;72.20;;;;;;5053599;28;19932;-49
2021/11/11 01:24:41;;;;;;;;;;;18.20;72.20;;;;;;5053689;28;19948;-46
2021/11/11 01:27:08;;;;;;;;;;;18.20;72.20;;;;;;5053554;28;19951;-52
2021/11/11 01:29:35;;;;;;;;;;;18.20;72.20;;;;;;5053428;28;19924;-52
2021/11/11 01:32:03;;;;;;;;;;;18.20;72.20;;;;;;5053072;28;20296;-53
2021/11/11 01:34:30;;;;;;;;;;;18.20;72.20;;;;;;5056093;28;19929;-51
2021/11/11 01:36:57;;;;;;;;;;;18.20;72.20;;;;;;5072626;28;19924;-50
2021/11/11 01:39:24;;;;;;;;;;;18.20;72.20;;;;;;5073644;28;19931;-49
2021/11/11 01:41:51;;;;;;;;;;;18.20;72.20;;;;;;5073434;28;19928;-53
2021/11/11 01:44:19;;;;;;;;;;;18.20;72.20;;;;;;5074003;28;19978;-52
2021/11/11 01:46:46;;;;;;;;;;;18.10;72.10;;;;;;5063447;28;19979;-53
2021/11/11 01:49:13;;;;;;;;;;;18.20;72.20;;;;;;5056796;28;19970;-52
2021/11/11 01:51:41;;;;;;;;;;;18.20;72.20;;;;;;5076953;28;20395;-51
2021/11/11 01:54:08;;;;;;;;;;;18.20;72.20;;;;;;5075744;28;19947;-52
2021/11/11 01:56:36;;;;;;;;;;;18.20;72.20;;;;;;5077179;28;19929;-48
2021/11/11 01:59:03;;;;;;;;;;;18.20;72.20;;;;;;5077123;28;20429;-50
2021/11/11 02:01:31;;;;;;;;;;;18.20;72.20;;;;;;5066676;28;19978;-47
2021/11/11 02:03:58;;;;;;;;;;;18.20;72.20;;;;;;5057335;28;19931;-47
2021/11/11 02:06:26;;;;;;;;;;;18.20;72.20;;;;;;5072891;28;19979;-49
2021/11/11 02:08:53;;;;;;;;;;;18.20;72.10;;;;;;5076946;28;19924;-49
2021/11/11 02:11:22;;;;;;;;;;;18.20;72.20;;;;;;5076830;28;19928;-49
2021/11/11 02:13:49;;;;;;;;;;;18.20;72.20;;;;;;5076821;28;19925;-51
2021/11/11 02:16:16;;;;;;;;;;;18.20;72.20;;;;;;5070124;28;19925;-49
2021/11/11 02:18:43;;;;;;;;;;;18.20;72.20;;;;;;5057093;28;20295;-46
2021/11/11 02:21:12;;;;;;;;;;;18.20;72.20;;;;;;5069524;28;19928;-49
2021/11/11 02:23:40;;;;;;;;;;;18.20;72.20;;;;;;5076801;28;19978;-46
2021/11/11 02:26:08;;;;;;;;;;;18.20;72.20;;;;;;5076951;28;19924;-51
2021/11/11 02:28:36;;;;;;;;;;;18.20;72.10;;;;;;5076926;28;20346;-49
2021/11/11 02:31:03;;;;;;;;;;;18.20;72.10;;;;;;5072654;28;20384;-51
2021/11/11 02:33:31;;;;;;;;;;;18.20;72.20;;;;;;5056508;28;19956;-48
2021/11/11 02:35:58;;;;;;;;;;;18.20;72.10;;;;;;5066349;28;19925;-47
2021/11/11 02:38:25;;;;;;;;;;;18.20;72.20;;;;;;5076760;28;19932;-53
2021/11/11 02:40:53;;;;;;;;;;;18.20;72.20;;;;;;5076559;28;19924;-52
2021/11/11 02:43:21;;;;;;;;;;;18.20;72.20;;;;;;5076339;28;19928;-48
2021/11/11 02:45:49;;;;;;;;;;;18.20;72.20;;;;;;5076319;28;19974;-46
2021/11/11 02:48:18;;;;;;;;;;;18.20;72.20;;;;;;5055907;28;19932;-48
2021/11/11 02:50:46;;;;;;;;;;;18.20;72.20;;;;;;5062710;28;19932;-54
2021/11/11 02:53:13;;;;;;;;;;;18.20;72.20;;;;;;5076284;28;19924;-48
2021/11/11 02:55:40;;;;;;;;;;;18.20;72.20;;;;;;5094107;28;19928;-52
2021/11/11 02:58:08;;;;;;;;;;;18.20;72.10;;;;;;5095933;28;19924;-50
2021/11/11 03:00:41;;;;;;;;;;;18.20;72.20;;;;;;5096247;28;19924;-50
2021/11/11 03:03:08;;;;;;;;;;;18.20;72.20;;;;;;5078314;28;19928;-51
2021/11/11 03:05:36;;;;;;;;;;;18.20;72.50;;;;;;5079924;28;19985;-51
2021/11/11 03:08:04;;;;;;;;;;;18.20;72.20;;;;;;5096105;28;19924;-51
2021/11/11 03:10:32;;;;;;;;;;;18.20;72.20;;;;;;5095839;28;19924;-53
2021/11/11 03:13:00;;;;;;;;;;;18.20;72.20;;;;;;5078088;28;20401;-50
2021/11/11 03:15:29;;;;;;;;;;;18.20;72.10;;;;;;5095949;28;19924;-52
2021/11/11 03:17:56;;;;;;;;;;;18.20;72.20;;;;;;5080832;28;19931;-53
2021/11/11 03:20:23;;;;;;;;;;;18.20;72.10;;;;;;5076982;28;20317;-52
2021/11/11 03:22:50;;;;;;;;;;;18.20;72.10;;;;;;5077782;28;19924;-51
2021/11/11 03:25:19;;;;;;;;;;;18.20;72.10;;;;;;5095781;28;20019;-53
2021/11/11 03:27:46;;;;;;;;;;;18.20;72.10;;;;;;5095978;28;19977;-49
2021/11/11 03:30:14;;;;;;;;;;;18.20;72.10;;;;;;5096456;28;19930;-52
2021/11/11 03:32:42;;;;;;;;;;;18.20;72.20;;;;;;5084339;28;20346;-53
2021/11/11 03:35:09;;;;;;;;;;;18.20;72.10;;;;;;5075315;28;20380;-45
2021/11/11 03:37:37;;;;;;;;;;;18.20;72.10;;;;;;5093312;28;19931;-48
2021/11/11 03:40:07;;;;;;;;;;;18.20;72.20;;;;;;5077446;28;19932;-49
2021/11/11 03:42:35;;;;;;;;;;;18.20;72.10;;;;;;5095460;28;20037;-45
2021/11/11 03:45:02;;;;;;;;;;;18.20;72.20;;;;;;5095710;28;19924;-51
2021/11/11 03:47:29;;;;;;;;;;;18.20;72.10;;;;;;5087494;28;19928;-51
2021/11/11 03:49:57;;;;;;;;;;;18.20;72.10;;;;;;5074979;28;19928;-45
2021/11/11 03:52:24;;;;;;;;;;;18.20;72.20;;;;;;5089735;28;19924;-49
2021/11/11 03:54:52;;;;;;;;;;;18.20;72.10;;;;;;5094937;28;19928;-50
2021/11/11 03:57:19;;;;;;;;;;;18.20;72.10;;;;;;5095457;28;19924;-50
2021/11/11 03:59:46;;;;;;;;;;;18.20;72.20;;;;;;5095409;28;20019;-49
2021/11/11 04:02:13;;;;;;;;;;;18.20;72.20;;;;;;5090580;28;19932;-51
2021/11/11 04:04:41;;;;;;;;;;;18.20;72.10;;;;;;5057156;28;19931;-46
2021/11/11 04:07:08;;;;;;;;;;;18.20;72.20;;;;;;5085661;28;19924;-49
2021/11/11 04:09:35;;;;;;;;;;;18.20;72.20;;;;;;5094713;28;19924;-44
2021/11/11 04:12:03;;;;;;;;;;;18.20;72.20;;;;;;5095184;28;19932;-49
2021/11/11 04:14:32;;;;;;;;;;;18.20;72.20;;;;;;5094858;28;19924;-51
2021/11/11 04:16:59;;;;;;;;;;;18.20;72.20;;;;;;5094128;28;19931;-50
2021/11/11 04:19:26;;;;;;;;;;;18.20;72.20;;;;;;5056688;28;19931;-52
2021/11/11 04:21:53;;;;;;;;;;;18.20;72.20;;;;;;5082483;28;20337;-50
2021/11/11 04:24:20;;;;;;;;;;;18.20;72.20;;;;;;5094477;28;20380;-51
2021/11/11 04:26:57;;;;;;;;;;;18.20;72.20;;;;;;5094585;28;19969;-50
2021/11/11 04:29:33;;;;;;;;;;;18.20;72.20;;;;;;5094903;28;19973;-47
2021/11/11 04:32:03;;;;;;;;;;;18.20;72.20;;;;;;5094800;28;19950;-48
2021/11/11 04:34:31;;;;;;;;;;;18.20;72.20;;;;;;5073883;28;19924;-52
2021/11/11 04:45:16;;;;;;;;;;;18.20;72.20;;;;;;5094324;28;19928;-46
2021/11/11 04:47:33;;;;;;;;;;;18.20;72.20;;;;;;5091726;28;20006;-51
2021/11/11 05:01:13;;;;;;;;;;;18.20;72.20;;;;;;5062940;28;19924;-46
2021/11/11 05:03:44;;;;;;;;;;;18.20;72.20;;;;;;5083606;28;20281;-48
2021/11/11 05:06:12;;;;;;;;;;;18.20;72.10;;;;;;5074143;28;20299;-47
2021/11/11 05:08:39;;;;;;;;;;;18.20;72.20;;;;;;5091818;28;20419;-53
2021/11/11 05:11:06;;;;;;;;;;;18.20;72.10;;;;;;5094038;28;19931;-52
2021/11/11 05:13:34;;;;;;;;;;;18.20;72.20;;;;;;5093906;28;19924;-48
2021/11/11 05:16:01;;;;;;;;;;;18.20;72.20;;;;;;5093869;28;19932;-50
2021/11/11 05:18:28;;;;;;;;;;;18.20;72.20;;;;;;5086436;28;19947;-52
2021/11/11 05:20:59;;;;;;;;;;;18.20;72.20;;;;;;5073573;28;19925;-54
2021/11/11 05:23:26;;;;;;;;;;;18.20;72.20;;;;;;5088434;28;19931;-49
2021/11/11 05:25:55;;;;;;;;;;;18.20;72.10;;;;;;5094072;28;19924;-47
2021/11/11 05:28:22;;;;;;;;;;;18.20;72.20;;;;;;5094075;28;20286;-44
2021/11/11 05:30:49;;;;;;;;;;;18.20;72.20;;;;;;5093979;28;19924;-50
2021/11/11 05:33:16;;;;;;;;;;;18.20;72.20;;;;;;5089082;28;19940;-47
2021/11/11 05:35:43;;;;;;;;;;;18.20;72.20;;;;;;5073466;28;19931;-51
2021/11/11 05:38:15;;;;;;;;;;;18.20;72.20;;;;;;5085546;28;20291;-50
2021/11/11 05:40:42;;;;;;;;;;;18.20;72.20;;;;;;5093800;28;20303;-53
2021/11/11 05:43:09;;;;;;;;;;;18.20;72.10;;;;;;5093633;28;19977;-48
2021/11/11 05:45:36;;;;;;;;;;;18.20;72.20;;;;;;5093917;28;19927;-51
2021/11/11 05:48:04;;;;;;;;;;;18.20;72.10;;;;;;5092255;28;20011;-53
2021/11/11 05:50:31;;;;;;;;;;;18.20;72.10;;;;;;5073499;28;19928;-51
2021/11/11 05:52:58;;;;;;;;;;;18.20;72.10;;;;;;5064025;28;19924;-48
2021/11/11 05:55:25;;;;;;;;;;;18.20;72.20;;;;;;5094051;28;19931;-48
2021/11/11 05:57:52;;;;;;;;;;;18.20;72.20;;;;;;5093507;28;19975;-47
2021/11/11 06:00:19;;;;;;;;;;;18.20;72.20;;;;;;5093443;28;19924;-46
2021/11/11 06:02:46;;;;;;;;;;;18.20;72.20;;;;;;5093462;28;19930;-49
2021/11/11 06:05:15;;;;;;;;;;;18.20;72.20;;;;;;5075344;28;19975;-47
2021/11/11 06:07:42;;;;;;;;;;;18.20;72.20;;;;;;5077881;28;19930;-47
2021/11/11 06:10:10;;;;;;;;;;;18.20;72.20;;;;;;5093205;28;19924;-49
2021/11/11 06:12:37;;;;;;;;;;;18.20;72.20;;;;;;5093372;28;19931;-47
2021/11/11 06:15:05;;;;;;;;;;;18.20;72.20;;;;;;5093642;28;19924;-52
2021/11/11 06:17:32;;;;;;;;;;;18.20;72.20;;;;;;5093307;28;19924;-53
2021/11/11 06:20:00;;;;;;;;;;;18.20;72.20;;;;;;5078582;28;20402;-48
2021/11/11 06:22:29;;;;;;;;;;;18.20;72.20;;;;;;5074271;28;19924;-51
2021/11/11 06:24:56;;;;;;;;;;;18.20;72.20;;;;;;5093320;28;20011;-50
2021/11/11 06:27:23;;;;;;;;;;;18.20;72.20;;;;;;5093127;28;19982;-52
2021/11/11 06:29:50;;;;;;;;;;;18.20;72.20;;;;;;5094301;28;19931;-53
2021/11/11 06:32:17;;;;;;;;;;;18.20;72.20;;;;;;5095095;28;19928;-50
2021/11/11 06:35:05;;;;;;;;;;;18.20;72.20;;;;;;5082724;28;19986;-51
2021/11/11 06:37:32;;;;;;;;;;;18.20;72.20;;;;;;5077294;28;20273;-51
2021/11/11 06:39:59;;;;;;;;;;;18.20;72.20;;;;;;5096885;28;20014;-54
2021/11/11 06:42:26;;;;;;;;;;;18.20;72.20;;;;;;5096918;28;20333;-47
2021/11/11 06:44:53;;;;;;;;;;;18.20;72.20;;;;;;5096551;28;19935;-49
2021/11/11 06:47:21;;;;;;;;;;;18.20;72.20;;;;;;5096462;28;19963;-53
2021/11/11 06:49:48;;;;;;;;;;;18.20;72.10;;;;;;5086190;28;19931;-52
2021/11/11 06:52:15;;;;;;;;;;;18.20;72.10;;;;;;5076123;28;19924;-50
2021/11/11 06:54:42;;;;;;;;;;;18.20;72.10;;;;;;5093199;28;19942;-49
2021/11/11 06:57:09;;;;;;;;;;;18.20;72.10;;;;;;5096254;28;19925;-53
2021/11/11 06:59:36;;;;;;;;;;;18.20;72.10;;;;;;5095727;28;20436;-54
2021/11/11 07:02:04;;;;;;;;;;;18.20;72.10;;;;;;5095979;28;20333;-53
2021/11/11 07:04:31;;;;;;;;;;;18.20;72.10;;;;;;5089497;28;19978;-52
2021/11/11 07:06:58;;;;;;;;;;;18.20;72.10;;;;;;5076167;28;20287;-52
2021/11/11 07:09:25;;;;;;;;;;;18.20;72.10;;;;;;5089613;28;19924;-51
2021/11/11 07:11:52;;;;;;;;;;;18.20;72.10;;;;;;5095903;28;19924;-53
2021/11/11 07:14:20;;;;;;;;;;;18.20;72.10;;;;;;5096277;28;19931;-53
2021/11/11 07:16:47;;;;;;;;;;;18.20;72.10;;;;;;5096209;28;19924;-53
2021/11/11 07:19:14;;;;;;;;;;;18.20;72.10;;;;;;5093440;28;19928;-48
2021/11/11 07:21:41;;;;;;;;;;;18.20;72.00;;;;;;5075847;28;19932;-52
2021/11/11 07:24:08;;;;;;;;;;;18.20;72.00;;;;;;5085770;28;20285;-54
2021/11/11 07:26:35;;;;;;;;;;;18.30;72.10;;;;;;5096069;28;20301;-51
2021/11/11 07:29:03;;;;;;;;;;;18.30;72.10;;;;;;5095696;28;19926;-52
2021/11/11 07:31:30;;;;;;;;;;;18.30;72.10;;;;;;5095889;28;20382;-50
2021/11/11 07:33:58;;;;;;;;;;;18.30;72.10;;;;;;5095597;28;19932;-48
2021/11/11 07:36:26;;;;;;;;;;;18.30;72.10;;;;;;5075616;28;19928;-46
2021/11/11 07:38:53;;;;;;;;;;;18.30;72.10;;;;;;5081738;28;19943;-50
2021/11/11 07:41:20;;;;;;;;;;;18.30;72.10;;;;;;5095729;28;20015;-54
2021/11/11 07:43:48;;;;;;;;;;;18.30;72.00;;;;;;5077125;28;19928;-51
2021/11/11 07:46:15;;;;;;;;;;;18.30;72.00;;;;;;5095371;28;19924;-48
2021/11/11 07:48:43;;;;;;;;;;;18.30;72.00;;;;;;5095300;28;19934;-47
2021/11/11 07:51:10;;;;;;;;;;;18.30;72.00;;;;;;5079207;28;19924;-50
2021/11/11 07:53:37;;;;;;;;;;;18.30;72.00;;;;;;5077623;28;19939;-53
2021/11/11 07:56:05;;;;;;;;;;;18.30;72.00;;;;;;5095235;28;19931;-47
2021/11/11 07:58:32;;;;;;;;;;;18.30;72.00;;;;;;5095453;28;20291;-50
2021/11/11 08:00:59;;;;;;;;;;;18.30;71.90;;;;;;5095021;28;19930;-51
2021/11/11 08:03:27;;;;;;;;;;;18.30;72.00;;;;;;5096236;28;20322;-50
2021/11/11 08:05:55;;;;;;;;;;;18.30;72.00;;;;;;5082522;28;19942;-53
2021/11/11 08:08:22;;;;;;;;;;;18.30;71.90;;;;;;5074694;28;19990;-51
2021/11/11 08:10:49;;;;;;;;;;;18.30;71.90;;;;;;5094507;28;20367;-48
2021/11/11 08:13:16;;;;;;;;;;;18.30;71.90;;;;;;5094815;28;19931;-51
2021/11/11 08:15:43;;;;;;;;;;;18.30;71.90;;;;;;5095960;28;19935;-52
2021/11/11 08:18:11;;;;;;;;;;;18.30;71.90;;;;;;5095073;28;19928;-50
2021/11/11 08:20:38;;;;;;;;;;;18.30;71.80;;;;;;5085602;28;19924;-52
2021/11/11 08:23:05;;;;;;;;;;;18.30;71.80;;;;;;5074473;28;19924;-49
2021/11/11 08:25:33;;;;;;;;;;;18.30;71.90;;;;;;5091028;28;20367;-49
2021/11/11 08:28:00;;;;;;;;;;;18.30;71.80;;;;;;5094523;28;19933;-47
2021/11/11 08:30:27;;;;;;;;;;;18.40;71.90;;;;;;5094501;28;19939;-45
2021/11/11 08:32:55;;;;;;;;;;;18.40;71.90;;;;;;5094269;28;20379;-50
2021/11/11 08:35:23;;;;;;;;;;;18.40;71.90;;;;;;5094590;28;19931;-47
2021/11/11 08:37:50;;;;;;;;;;;18.30;72.50;;;;;;5075123;28;19929;-50
2021/11/11 08:40:17;;;;;;;;;;;18.40;71.80;;;;;;5086723;28;19982;-45
2021/11/11 08:42:49;;;;;;;;;;;18.40;71.80;;;;;;5076369;28;19924;-47
2021/11/11 08:45:16;;;;;;;;;;;18.40;71.80;;;;;;5094415;28;19927;-49
2021/11/11 08:47:44;;;;;;;;;;;18.40;71.80;;;;;;5094068;28;19924;-52
2021/11/11 08:50:12;;;;;;;;;;;18.40;71.80;;;;;;5094941;28;19932;-52
2021/11/11 08:52:48;;;;;;;;;;;18.40;71.80;;;;;;5077297;28;19970;-53
2021/11/11 08:55:18;;;;;;;;;;;18.40;71.70;;;;;;5084119;28;19924;-55
2021/11/11 08:57:45;;;;;;;;;;;18.40;71.70;;;;;;5076223;28;19924;-48
2021/11/11 09:00:15;;;;;;;;;;;18.40;71.70;;;;;;5094044;28;19924;-50
2021/11/11 09:02:43;;;;;;;;;;;18.40;71.70;;;;;;5094363;28;19985;-52
2021/11/11 09:05:10;;;;;;;;;;;18.40;71.70;;;;;;5094259;28;20265;-53
2021/11/11 09:07:39;;;;;;;;;;;18.40;71.70;;;;;;5079957;28;19931;-48
2021/11/11 09:10:09;;;;;;;;;;;18.40;71.70;;;;;;5082219;28;19930;-52
2021/11/11 09:12:36;;;;;;;;;;;18.40;71.70;;;;;;5093949;28;19924;-50
2021/11/11 09:15:04;;;;;;;;;;;18.40;71.70;;;;;;5093668;28;19924;-51
2021/11/11 09:17:32;;;;;;;;;;;18.40;71.70;;;;;;5093740;28;19925;-51
2021/11/11 09:19:59;;;;;;;;;;;18.40;71.60;;;;;;5093758;28;19924;-47
2021/11/11 09:22:27;;;;;;;;;;;18.40;71.60;;;;;;5082969;28;19924;-48
2021/11/11 09:24:54;;;;;;;;;;;18.40;71.60;;;;;;5079271;28;19977;-51
2021/11/11 09:27:21;;;;;;;;;;;18.40;71.70;;;;;;5093995;28;19928;-46
2021/11/11 09:29:48;;;;;;;;;;;18.40;71.60;;;;;;5093915;28;20321;-50
2021/11/11 09:32:16;;;;;;;;;;;18.40;71.60;;;;;;5093327;28;19924;-52
2021/11/11 09:34:43;;;;;;;;;;;18.40;71.60;;;;;;5093909;28;19931;-46
2021/11/11 09:37:10;;;;;;;;;;;18.50;71.70;;;;;;5086653;28;20362;-48
2021/11/11 09:39:37;;;;;;;;;;;18.50;71.70;;;;;;5075510;28;19946;-44
2021/11/11 09:42:05;;;;;;;;;;;18.50;71.70;;;;;;5094131;28;19989;-50
2021/11/11 09:44:32;;;;;;;;;;;18.50;71.60;;;;;;5093615;28;19924;-53
2021/11/11 09:46:59;;;;;;;;;;;18.50;71.60;;;;;;5093549;28;19924;-47
2021/11/11 09:49:27;;;;;;;;;;;18.50;71.60;;;;;;5093580;28;20436;-48
2021/11/11 09:51:55;;;;;;;;;;;18.50;71.60;;;;;;5090096;28;19928;-50
2021/11/11 09:59:42;;;;;;;;;;;18.50;71.60;;;;;;5093824;28;20014;-51
2021/11/11 10:02:09;;;;;;;;;;;18.50;71.50;;;;;;5093711;28;20291;-49
2021/11/11 10:04:38;;;;;;;;;;;18.50;71.50;;;;;;5093668;28;19931;-54
2021/11/11 10:07:06;;;;;;;;;;;18.50;71.50;;;;;;5093683;28;19970;-51
2021/11/11 10:09:38;;;;;;;;;;;18.50;71.50;;;;;;5077137;28;19924;-49
2021/11/11 10:12:06;;;;;;;;;;;18.50;71.50;;;;;;5096792;28;19932;-52
2021/11/11 10:14:36;;;;;;;;;;;18.50;71.50;;;;;;5097435;28;19928;-50
2021/11/11 10:17:06;;;;;;;;;;;18.50;71.40;;;;;;5097704;28;19950;-48
2021/11/11 10:19:35;;;;;;;;;;;18.50;71.50;;;;;;5096967;28;20376;-54
2021/11/11 10:22:24;;;;;;;;;;;18.50;71.40;;;;;;5095187;28;19939;-50
2021/11/11 10:24:55;;;;;;;;;;;18.50;71.40;;;;;;5076251;28;19924;-51
2021/11/11 10:27:47;;;;;;;;;;;18.50;71.40;;;;;;5056648;28;19932;-50
2021/11/11 10:30:12;;;;;;;;;;;18.50;71.40;;;;;;5056367;28;19924;-51
2021/11/11 10:32:41;;;;;;;;;;;18.50;71.40;;;;;;5056337;28;19991;-54
2021/11/11 10:35:44;;;;;;;;;;;18.50;71.40;;;;;;5056430;28;19947;-52
2021/11/11 10:38:15;;;;;;;;;;;18.50;71.30;;;;;;4994596;28;19933;-50
2021/11/11 10:40:45;;;;;;;;;;;18.50;71.30;;;;;;5000098;28;20348;-51
2021/11/11 10:43:21;;;;;;;;;;;18.50;71.30;;;;;;5014521;28;19925;-50
2021/11/11 10:45:50;;;;;;;;;;;18.50;71.30;;;;;;5014553;28;20384;-53
2021/11/11 10:48:19;;;;;;;;;;;18.50;71.20;;;;;;5014485;28;20399;-52
2021/11/11 10:50:47;;;;;;;;;;;18.50;71.20;;;;;;4998214;28;19925;-49
2021/11/11 10:53:19;;;;;;;;;;;18.50;71.20;;;;;;5005682;28;19932;-51
2021/11/11 10:55:50;;;;;;;;;;;18.50;71.20;;;;;;4982705;28;19933;-48
2021/11/11 10:58:18;;;;;;;;;;;18.50;71.20;;;;;;5014376;28;19929;-45
2021/11/11 11:00:48;;;;;;;;;;;18.50;71.20;;;;;;5014315;28;19925;-52
2021/11/11 11:03:20;;;;;;;;;;;18.50;71.20;;;;;;5014253;28;19976;-53
2021/11/11 11:05:50;;;;;;;;;;;18.60;71.30;;;;;;5014309;28;20325;-51
2021/11/11 11:08:19;;;;;;;;;;;18.60;71.20;;;;;;5006307;28;19929;-50
2021/11/11 11:10:51;;;;;;;;;;;18.50;71.10;;;;;;4997841;28;19980;-50
2021/11/11 11:13:22;;;;;;;;;;;18.50;71.10;;;;;;5092396;28;19931;-55
2021/11/11 11:15:55;;;;;;;;;;;18.60;71.20;;;;;;5096099;28;19924;-53
2021/11/11 11:18:24;;;;;;;;;;;18.50;71.10;;;;;;5095359;28;20256;-55
2021/11/11 11:20:59;;;;;;;;;;;18.50;71.10;;;;;;5096055;28;19924;-54
2021/11/11 11:23:32;;;;;;;;;;;18.50;71.10;;;;;;5088111;28;19925;-52
2021/11/11 11:26:04;;;;;;;;;;;18.60;71.20;;;;;;5079163;28;19924;-46
2021/11/11 11:28:34;;;;;;;;;;;18.60;71.10;;;;;;5095752;28;19973;-45
2021/11/11 11:31:03;;;;;;;;;;;18.50;71.00;;;;;;5095712;28;19931;-48
2021/11/11 11:33:42;;;;;;;;;;;18.50;70.90;;;;;;5095584;28;19928;-48
2021/11/11 11:36:12;;;;;;;;;;;18.60;71.00;;;;;;5096475;28;19924;-50
2021/11/11 11:38:48;;;;;;;;;;;18.60;71.00;;;;;;5087122;28;19924;-50
2021/11/11 11:41:26;;;;;;;;;;;18.60;71.00;;;;;;5079490;28;20409;-48
2021/11/11 11:43:53;;;;;;;;;;;18.60;71.00;;;;;;5095479;28;19924;-48
2021/11/11 11:46:24;;;;;;;;;;;18.60;71.00;;;;;;5095390;28;19931;-46
2021/11/11 11:48:52;;;;;;;;;;;18.60;71.00;;;;;;5095346;28;19928;-52
2021/11/11 11:51:21;;;;;;;;;;;18.60;71.00;;;;;;5095622;28;19924;-46
2021/11/11 11:56:46;;;;;;;;;;;18.60;71.00;;;;;;5080842;28;19924;-49
2021/11/11 11:59:16;;;;;;;;;;;18.60;71.00;;;;;;5095234;28;19973;-47
2021/11/11 12:10:23;;;;;;;;;;;18.60;71.00;;;;;;5064376;28;19924;-45
2021/11/11 12:15:50;;;;;;;;;;;18.60;71.00;;;;;;5078131;28;20014;-53
2021/11/11 12:28:30;;;;;;;;;;;18.60;71.00;;;;;;5094987;28;19924;-52
2021/11/11 12:41:18;;;;;;;;;;;18.60;71.10;;;;;;5074502;28;19955;-48
2021/11/11 12:44:05;;;;;;;;;;;18.60;71.10;;;;;;5094238;28;19997;-51
2021/11/11 12:46:41;;;;;;;;;;;18.50;71.00;;;;;;5094274;28;19924;-48
2021/11/11 12:49:44;;;;;;;;;;;18.50;71.10;;;;;;5094837;28;19933;-48
2021/11/11 12:52:14;;;;;;;;;;;18.50;71.00;;;;;;5032110;28;20035;-46
2021/11/11 12:54:43;;;;;;;;;;;18.60;71.20;;;;;;5021620;28;19933;-51
2021/11/11 12:57:11;;;;;;;;;;;18.50;71.10;;;;;;5017022;28;19925;-44
2021/11/11 12:59:41;;;;;;;;;;;18.50;71.10;;;;;;5031223;28;20197;-50
2021/11/11 13:02:09;;;;;;;;;;;18.50;71.10;;;;;;5031937;28;19925;-51
2021/11/11 13:04:44;;;;;;;;;;;18.50;71.10;;;;;;5031819;28;19925;-47
2021/11/11 13:07:31;;;;;;;;;;;18.60;71.20;;;;;;5031880;28;20412;-51
2021/11/11 13:10:07;;;;;;;;;;;18.50;71.10;;;;;;5020991;28;20064;-50
2021/11/11 13:12:37;;;;;;;;;;;18.50;71.10;;;;;;5018761;28;19925;-50
2021/11/11 13:15:09;;;;;;;;;;;18.50;71.10;;;;;;5031692;28;19932;-49
2021/11/11 13:17:40;;;;;;;;;;;18.50;71.10;;;;;;5031603;28;19972;-49
2021/11/11 13:20:28;;;;;;;;;;;18.50;71.20;;;;;;5032080;28;19929;-47
2021/11/11 13:26:21;;;;;;;;;;;18.50;71.20;;;;;;5030667;28;19924;-54
2021/11/11 13:43:38;;;;;;;;;;;18.50;71.20;;;;;;5086349;28;19931;-54
2021/11/11 14:00:13;;;;;;;;;;;18.50;71.40;;;;;;5097162;28;20387;-47
2021/11/11 16:00:01;;;;;;;;;;;18.30;72.00;;;;;;5084039;28;19924;-49
2021/11/11 16:24:46;;;;;;;;;;;18.30;72.10;;;;;;5054594;28;19928;-54
2021/11/11 16:27:13;;;;;;;;;;;18.30;72.10;;;;;;5063758;28;20273;-50
2021/11/11 16:29:40;;;;;;;;;;;18.30;72.10;;;;;;5081110;28;20379;-53
2021/11/11 16:32:08;;;;;;;;;;;18.30;72.10;;;;;;5094402;28;19974;-49
2021/11/11 16:34:35;;;;;;;;;;;18.30;72.10;;;;;;5094382;28;19924;-52
2021/11/11 16:37:07;;;;;;;;;;;18.30;72.20;;;;;;5094624;28;20023;-56
2021/11/11 16:39:37;;;;;;;;;;;18.30;72.20;;;;;;5094163;28;19932;-49
2021/11/11 16:42:13;;;;;;;;;;;18.30;72.20;;;;;;5084956;28;19924;-53
2021/11/11 16:44:40;;;;;;;;;;;18.30;72.20;;;;;;5079758;28;19931;-50
2021/11/11 16:47:09;;;;;;;;;;;18.30;72.20;;;;;;5093983;28;19971;-50
2021/11/11 16:49:36;;;;;;;;;;;18.20;72.10;;;;;;5094141;28;19939;-49
2021/11/11 16:52:03;;;;;;;;;;;18.20;72.10;;;;;;5094052;28;19924;-49
2021/11/11 16:54:31;;;;;;;;;;;18.20;72.10;;;;;;5093868;28;19924;-52
2021/11/11 16:56:58;;;;;;;;;;;18.20;72.10;;;;;;5070301;28;19924;-50
2021/11/11 16:59:25;;;;;;;;;;;18.30;72.20;;;;;;5075656;28;19972;-50
2021/11/11 17:01:52;;;;;;;;;;;18.20;72.10;;;;;;5094221;28;20294;-50
2021/11/11 17:04:19;;;;;;;;;;;18.20;72.20;;;;;;5093941;28;19931;-49
2021/11/11 17:06:46;;;;;;;;;;;18.30;72.30;;;;;;5093836;28;19935;-50
2021/11/11 17:09:13;;;;;;;;;;;18.20;72.20;;;;;;5093825;28;20398;-48
2021/11/11 17:11:41;;;;;;;;;;;18.20;72.20;;;;;;5092067;28;19969;-50
2021/11/11 17:14:08;;;;;;;;;;;18.30;72.30;;;;;;5073631;28;19924;-47
2021/11/11 17:16:37;;;;;;;;;;;18.20;72.20;;;;;;5091731;28;19927;-47
2021/11/11 17:19:19;;;;;;;;;;;18.30;72.30;;;;;;5094482;28;19924;-50
2021/11/11 17:21:47;;;;;;;;;;;18.20;72.20;;;;;;5094158;28;19928;-49
2021/11/11 17:24:17;;;;;;;;;;;18.20;72.20;;;;;;5093988;28;20042;-48
2021/11/11 17:27:09;;;;;;;;;;;18.20;72.20;;;;;;5093498;28;19924;-54
2021/11/11 17:29:36;;;;;;;;;;;18.20;72.30;;;;;;5074648;28;19932;-49
2021/11/11 17:32:03;;;;;;;;;;;18.30;72.40;;;;;;5094070;28;19932;-49
2021/11/11 17:34:30;;;;;;;;;;;18.20;72.20;;;;;;5093642;28;19924;-47
2021/11/11 17:36:57;;;;;;;;;;;18.20;72.30;;;;;;5093609;28;19924;-52
2021/11/11 17:39:24;;;;;;;;;;;18.20;72.30;;;;;;5093533;28;20018;-51
2021/11/11 17:41:51;;;;;;;;;;;18.20;72.20;;;;;;5093572;28;19978;-49
2021/11/11 17:44:18;;;;;;;;;;;18.20;72.30;;;;;;5072982;28;19924;-47
2021/11/11 17:46:54;;;;;;;;;;;18.20;72.30;;;;;;5073089;28;20395;-50
2021/11/11 17:49:28;;;;;;;;;;;18.20;72.30;;;;;;5093638;28;19924;-51
2021/11/11 17:52:14;;;;;;;;;;;18.20;72.30;;;;;;5093890;28;19931;-49
2021/11/11 17:54:42;;;;;;;;;;;18.20;72.30;;;;;;5093118;28;20471;-53
2021/11/11 17:57:16;;;;;;;;;;;18.20;72.30;;;;;;5092036;28;20014;-50
2021/11/11 17:59:43;;;;;;;;;;;18.20;72.30;;;;;;5073302;28;19925;-48
2021/11/11 18:02:16;;;;;;;;;;;18.20;72.30;;;;;;5093056;28;19924;-53
2021/11/11 18:04:50;;;;;;;;;;;18.20;72.30;;;;;;5093783;28;19924;-47
2021/11/11 18:07:23;;;;;;;;;;;18.20;72.30;;;;;;5093774;28;19932;-51
2021/11/11 18:09:57;;;;;;;;;;;18.20;72.30;;;;;;5093342;28;19924;-50
2021/11/11 18:12:31;;;;;;;;;;;18.20;72.30;;;;;;5091097;28;20375;-54
2021/11/11 18:15:03;;;;;;;;;;;18.20;72.30;;;;;;5073091;28;20368;-52
2021/11/11 18:17:31;;;;;;;;;;;18.20;72.30;;;;;;5053459;28;19924;-51